sensor_id;sensor_type;location;lat;lon;timestamp;temperature;humidity
52030;DHT22;38043;53.224;6.580;2023-04-03T00:01:30;2.20;99.90
52030;DHT22;38043;53.224;6.580;2023-04-03T00:03:56;2.20;99.90
52030;DHT22;38043;53.224;6.580;2023-04-03T00:06:22;2.20;99.90
52030;DHT22;38043;53.224;6.580;2023-04-03T00:08:49;2.20;99.90
52030;DHT22;38043;53.224;6.580;2023-04-03T00:11:15;2.20;99.90
52030;DHT22;38043;53.224;6.580;2023-04-03T00:13:41;2.20;99.90
52030;DHT22;38043;53.224;6.580;2023-04-03T00:16:08;2.40;99.90
52030;DHT22;38043;53.224;6.580;2023-04-03T00:18:35;2.20;99.90
52030;DHT22;38043;53.224;6.580;2023-04-03T00:21:00;2.30;99.90
52030;DHT22;38043;53.224;6.580;2023-04-03T00:23:26;2.20;99.90
52030;DHT22;38043;53.224;6.580;2023-04-03T00:25:53;2.30;99.90
52030;DHT22;38043;53.224;6.580;2023-04-03T00:28:19;2.30;99.90
52030;DHT22;38043;53.224;6.580;2023-04-03T00:30:45;2.20;99.90
52030;DHT22;38043;53.224;6.580;2023-04-03T00:33:14;2.20;99.90
52030;DHT22;38043;53.224;6.580;2023-04-03T00:35:39;2.20;99.90
52030;DHT22;38043;53.224;6.580;2023-04-03T00:38:05;2.20;99.90
52030;DHT22;38043;53.224;6.580;2023-04-03T00:40:37;2.20;99.90
52030;DHT22;38043;53.224;6.580;2023-04-03T00:43:10;2.20;99.90
52030;DHT22;38043;53.224;6.580;2023-04-03T00:45:40;2.20;99.90
52030;DHT22;38043;53.224;6.580;2023-04-03T00:48:07;2.20;99.90
52030;DHT22;38043;53.224;6.580;2023-04-03T00:50:37;2.20;99.90
52030;DHT22;38043;53.224;6.580;2023-04-03T00:53:05;2.10;99.90
52030;DHT22;38043;53.224;6.580;2023-04-03T00:55:32;2.10;99.90
52030;DHT22;38043;53.224;6.580;2023-04-03T00:58:00;2.20;99.90
52030;DHT22;38043;53.224;6.580;2023-04-03T01:00:27;2.10;99.90
52030;DHT22;38043;53.224;6.580;2023-04-03T01:02:53;2.10;99.90
52030;DHT22;38043;53.224;6.580;2023-04-03T01:05:20;2.00;99.90
52030;DHT22;38043;53.224;6.580;2023-04-03T01:07:47;2.00;99.90
52030;DHT22;38043;53.224;6.580;2023-04-03T01:10:16;2.00;99.90
52030;DHT22;38043;53.224;6.580;2023-04-03T01:12:45;2.00;99.90
52030;DHT22;38043;53.224;6.580;2023-04-03T01:15:12;2.00;99.90
52030;DHT22;38043;53.224;6.580;2023-04-03T01:17:44;2.00;99.90
52030;DHT22;38043;53.224;6.580;2023-04-03T01:25:28;1.90;99.90
52030;DHT22;38043;53.224;6.580;2023-04-03T01:27:54;1.90;99.90
52030;DHT22;38043;53.224;6.580;2023-04-03T01:30:23;1.90;99.90
52030;DHT22;38043;53.224;6.580;2023-04-03T01:32:50;1.80;99.90
52030;DHT22;38043;53.224;6.580;2023-04-03T01:35:16;1.80;99.90
52030;DHT22;38043;53.224;6.580;2023-04-03T01:37:42;1.80;99.90
52030;DHT22;38043;53.224;6.580;2023-04-03T01:40:08;1.80;99.90
52030;DHT22;38043;53.224;6.580;2023-04-03T01:42:34;1.80;99.90
52030;DHT22;38043;53.224;6.580;2023-04-03T01:44:59;1.80;99.90
52030;DHT22;38043;53.224;6.580;2023-04-03T01:47:25;1.70;99.90
52030;DHT22;38043;53.224;6.580;2023-04-03T01:49:51;1.70;99.90
52030;DHT22;38043;53.224;6.580;2023-04-03T01:52:16;1.60;99.90
52030;DHT22;38043;53.224;6.580;2023-04-03T01:54:42;1.60;99.90
52030;DHT22;38043;53.224;6.580;2023-04-03T01:57:08;1.60;99.90
52030;DHT22;38043;53.224;6.580;2023-04-03T01:59:34;1.60;99.90
52030;DHT22;38043;53.224;6.580;2023-04-03T02:01:59;1.60;99.90
52030;DHT22;38043;53.224;6.580;2023-04-03T02:04:25;1.80;99.90
52030;DHT22;38043;53.224;6.580;2023-04-03T02:06:50;1.60;99.90
52030;DHT22;38043;53.224;6.580;2023-04-03T02:09:16;1.50;99.90
52030;DHT22;38043;53.224;6.580;2023-04-03T02:11:42;1.50;99.90
52030;DHT22;38043;53.224;6.580;2023-04-03T02:14:07;1.20;99.90
52030;DHT22;38043;53.224;6.580;2023-04-03T02:16:33;1.50;99.90
52030;DHT22;38043;53.224;6.580;2023-04-03T02:18:59;1.50;99.90
52030;DHT22;38043;53.224;6.580;2023-04-03T02:21:24;1.40;99.90
52030;DHT22;38043;53.224;6.580;2023-04-03T02:23:50;1.40;99.90
52030;DHT22;38043;53.224;6.580;2023-04-03T02:26:16;1.40;99.90
52030;DHT22;38043;53.224;6.580;2023-04-03T02:28:42;1.40;99.90
52030;DHT22;38043;53.224;6.580;2023-04-03T02:31:09;1.40;99.90
52030;DHT22;38043;53.224;6.580;2023-04-03T02:33:36;1.40;99.90
52030;DHT22;38043;53.224;6.580;2023-04-03T02:36:06;1.30;99.90
52030;DHT22;38043;53.224;6.580;2023-04-03T02:38:32;1.30;99.90
52030;DHT22;38043;53.224;6.580;2023-04-03T02:41:06;1.30;99.90
52030;DHT22;38043;53.224;6.580;2023-04-03T02:43:32;1.30;99.90
52030;DHT22;38043;53.224;6.580;2023-04-03T02:45:58;1.20;99.90
52030;DHT22;38043;53.224;6.580;2023-04-03T02:48:24;1.20;99.90
52030;DHT22;38043;53.224;6.580;2023-04-03T02:50:50;1.20;99.90
52030;DHT22;38043;53.224;6.580;2023-04-03T02:53:16;1.20;99.90
52030;DHT22;38043;53.224;6.580;2023-04-03T02:55:42;1.10;99.90
52030;DHT22;38043;53.224;6.580;2023-04-03T02:58:08;1.10;99.90
52030;DHT22;38043;53.224;6.580;2023-04-03T03:00:34;1.10;99.90
52030;DHT22;38043;53.224;6.580;2023-04-03T03:02:59;1.00;99.90
52030;DHT22;38043;53.224;6.580;2023-04-03T03:05:26;1.00;99.90
52030;DHT22;38043;53.224;6.580;2023-04-03T03:07:52;1.00;99.90
52030;DHT22;38043;53.224;6.580;2023-04-03T03:10:18;1.00;99.90
52030;DHT22;38043;53.224;6.580;2023-04-03T03:12:44;0.90;99.90
52030;DHT22;38043;53.224;6.580;2023-04-03T03:15:11;1.00;99.90
52030;DHT22;38043;53.224;6.580;2023-04-03T03:17:37;0.90;99.90
52030;DHT22;38043;53.224;6.580;2023-04-03T03:20:04;0.80;99.90
52030;DHT22;38043;53.224;6.580;2023-04-03T03:22:30;0.90;99.90
52030;DHT22;38043;53.224;6.580;2023-04-03T03:24:56;0.70;99.90
52030;DHT22;38043;53.224;6.580;2023-04-03T03:27:21;0.70;99.90
52030;DHT22;38043;53.224;6.580;2023-04-03T03:29:47;0.70;99.90
52030;DHT22;38043;53.224;6.580;2023-04-03T03:32:13;0.70;99.90
52030;DHT22;38043;53.224;6.580;2023-04-03T03:34:38;0.60;99.90
52030;DHT22;38043;53.224;6.580;2023-04-03T03:37:04;0.80;99.90
52030;DHT22;38043;53.224;6.580;2023-04-03T03:39:30;0.70;99.90
52030;DHT22;38043;53.224;6.580;2023-04-03T03:41:56;0.60;99.90
52030;DHT22;38043;53.224;6.580;2023-04-03T03:44:21;0.50;99.90
52030;DHT22;38043;53.224;6.580;2023-04-03T03:46:47;0.50;99.90
52030;DHT22;38043;53.224;6.580;2023-04-03T03:49:13;0.50;99.90
52030;DHT22;38043;53.224;6.580;2023-04-03T03:51:39;0.50;99.90
52030;DHT22;38043;53.224;6.580;2023-04-03T03:54:05;0.50;99.90
52030;DHT22;38043;53.224;6.580;2023-04-03T03:56:31;0.40;99.90
52030;DHT22;38043;53.224;6.580;2023-04-03T03:58:56;0.60;99.90
52030;DHT22;38043;53.224;6.580;2023-04-03T04:01:23;0.30;99.90
52030;DHT22;38043;53.224;6.580;2023-04-03T04:03:50;0.30;99.90
52030;DHT22;38043;53.224;6.580;2023-04-03T04:06:16;0.50;99.90
52030;DHT22;38043;53.224;6.580;2023-04-03T04:08:42;0.20;99.90
52030;DHT22;38043;53.224;6.580;2023-04-03T04:11:08;0.20;99.90
52030;DHT22;38043;53.224;6.580;2023-04-03T04:13:34;0.20;99.90
52030;DHT22;38043;53.224;6.580;2023-04-03T04:16:00;0.10;99.90
52030;DHT22;38043;53.224;6.580;2023-04-03T04:18:26;0.10;99.90
52030;DHT22;38043;53.224;6.580;2023-04-03T04:20:52;0.10;99.90
52030;DHT22;38043;53.224;6.580;2023-04-03T04:23:18;0.10;99.90
52030;DHT22;38043;53.224;6.580;2023-04-03T04:25:48;0.10;99.90
52030;DHT22;38043;53.224;6.580;2023-04-03T04:28:14;0.30;99.90
52030;DHT22;38043;53.224;6.580;2023-04-03T04:30:40;0.00;99.90
52030;DHT22;38043;53.224;6.580;2023-04-03T04:33:06;0.00;99.90
52030;DHT22;38043;53.224;6.580;2023-04-03T04:35:32;0.00;99.90
52030;DHT22;38043;53.224;6.580;2023-04-03T04:37:58;0.00;99.90
52030;DHT22;38043;53.224;6.580;2023-04-03T04:40:24;-0.10;99.90
52030;DHT22;38043;53.224;6.580;2023-04-03T04:42:50;-0.10;99.90
52030;DHT22;38043;53.224;6.580;2023-04-03T04:45:15;-0.10;99.90
52030;DHT22;38043;53.224;6.580;2023-04-03T04:47:41;-0.10;99.90
52030;DHT22;38043;53.224;6.580;2023-04-03T04:50:08;-0.10;99.90
52030;DHT22;38043;53.224;6.580;2023-04-03T04:52:34;-0.10;99.90
52030;DHT22;38043;53.224;6.580;2023-04-03T04:54:59;0.00;99.90
52030;DHT22;38043;53.224;6.580;2023-04-03T04:57:25;0.00;99.90
52030;DHT22;38043;53.224;6.580;2023-04-03T04:59:51;0.10;99.90
52030;DHT22;38043;53.224;6.580;2023-04-03T05:02:17;-0.10;99.90
52030;DHT22;38043;53.224;6.580;2023-04-03T05:04:43;-0.10;99.90
52030;DHT22;38043;53.224;6.580;2023-04-03T05:07:09;-0.10;99.90
52030;DHT22;38043;53.224;6.580;2023-04-03T05:09:35;-0.10;99.90
52030;DHT22;38043;53.224;6.580;2023-04-03T05:12:00;0.00;99.90
52030;DHT22;38043;53.224;6.580;2023-04-03T05:14:27;-0.10;99.90
52030;DHT22;38043;53.224;6.580;2023-04-03T05:16:52;-0.10;99.90
52030;DHT22;38043;53.224;6.580;2023-04-03T05:19:22;-0.10;99.90
52030;DHT22;38043;53.224;6.580;2023-04-03T05:21:48;-0.10;99.90
52030;DHT22;38043;53.224;6.580;2023-04-03T05:24:15;-0.20;99.90
52030;DHT22;38043;53.224;6.580;2023-04-03T05:26:42;-0.20;99.90
52030;DHT22;38043;53.224;6.580;2023-04-03T05:29:07;-0.20;99.90
52030;DHT22;38043;53.224;6.580;2023-04-03T05:31:33;-0.10;99.90
52030;DHT22;38043;53.224;6.580;2023-04-03T05:33:59;-0.10;99.90
52030;DHT22;38043;53.224;6.580;2023-04-03T05:36:25;-0.10;99.90
52030;DHT22;38043;53.224;6.580;2023-04-03T05:38:51;-0.10;99.90
52030;DHT22;38043;53.224;6.580;2023-04-03T05:41:18;0.00;99.90
52030;DHT22;38043;53.224;6.580;2023-04-03T05:43:44;0.00;99.90
52030;DHT22;38043;53.224;6.580;2023-04-03T05:46:15;0.10;99.90
52030;DHT22;38043;53.224;6.580;2023-04-03T05:48:41;0.10;99.90
52030;DHT22;38043;53.224;6.580;2023-04-03T05:51:17;0.20;99.90
52030;DHT22;38043;53.224;6.580;2023-04-03T05:53:43;0.20;99.90
52030;DHT22;38043;53.224;6.580;2023-04-03T05:56:10;0.30;99.90
52030;DHT22;38043;53.224;6.580;2023-04-03T05:58:36;0.30;99.90
52030;DHT22;38043;53.224;6.580;2023-04-03T06:01:02;0.40;99.90
52030;DHT22;38043;53.224;6.580;2023-04-03T06:03:28;0.40;99.90
52030;DHT22;38043;53.224;6.580;2023-04-03T06:05:53;0.50;99.90
52030;DHT22;38043;53.224;6.580;2023-04-03T06:08:20;0.50;99.90
52030;DHT22;38043;53.224;6.580;2023-04-03T06:10:45;0.60;99.90
52030;DHT22;38043;53.224;6.580;2023-04-03T06:13:11;0.70;99.90
52030;DHT22;38043;53.224;6.580;2023-04-03T06:15:38;0.70;99.90
52030;DHT22;38043;53.224;6.580;2023-04-03T06:18:05;0.80;99.90
52030;DHT22;38043;53.224;6.580;2023-04-03T06:20:32;0.90;99.90
52030;DHT22;38043;53.224;6.580;2023-04-03T06:22:57;1.00;99.90
52030;DHT22;38043;53.224;6.580;2023-04-03T06:25:23;1.10;99.90
52030;DHT22;38043;53.224;6.580;2023-04-03T06:27:49;1.20;99.90
52030;DHT22;38043;53.224;6.580;2023-04-03T06:30:15;1.30;99.90
52030;DHT22;38043;53.224;6.580;2023-04-03T06:32:41;1.50;99.90
52030;DHT22;38043;53.224;6.580;2023-04-03T06:35:07;1.60;99.90
52030;DHT22;38043;53.224;6.580;2023-04-03T06:37:33;1.80;99.90
52030;DHT22;38043;53.224;6.580;2023-04-03T06:39:58;2.20;99.90
52030;DHT22;38043;53.224;6.580;2023-04-03T06:42:25;2.40;99.90
52030;DHT22;38043;53.224;6.580;2023-04-03T06:44:51;2.50;99.90
52030;DHT22;38043;53.224;6.580;2023-04-03T06:47:17;2.60;99.90
52030;DHT22;38043;53.224;6.580;2023-04-03T06:49:43;2.60;99.90
52030;DHT22;38043;53.224;6.580;2023-04-03T06:52:09;2.80;99.90
52030;DHT22;38043;53.224;6.580;2023-04-03T06:54:35;2.90;99.90
52030;DHT22;38043;53.224;6.580;2023-04-03T06:57:02;3.10;99.90
52030;DHT22;38043;53.224;6.580;2023-04-03T06:59:27;3.20;99.90
52030;DHT22;38043;53.224;6.580;2023-04-03T07:01:53;3.60;99.90
52030;DHT22;38043;53.224;6.580;2023-04-03T07:04:19;4.00;99.90
52030;DHT22;38043;53.224;6.580;2023-04-03T07:06:48;4.30;99.90
52030;DHT22;38043;53.224;6.580;2023-04-03T07:09:14;4.50;99.90
52030;DHT22;38043;53.224;6.580;2023-04-03T07:11:40;5.10;99.90
52030;DHT22;38043;53.224;6.580;2023-04-03T07:14:06;5.10;99.90
52030;DHT22;38043;53.224;6.580;2023-04-03T07:16:34;5.10;99.90
52030;DHT22;38043;53.224;6.580;2023-04-03T07:19:00;5.10;99.90
52030;DHT22;38043;53.224;6.580;2023-04-03T07:21:27;4.90;99.90
52030;DHT22;38043;53.224;6.580;2023-04-03T07:23:53;5.10;99.90
52030;DHT22;38043;53.224;6.580;2023-04-03T07:26:19;5.10;99.90
52030;DHT22;38043;53.224;6.580;2023-04-03T07:28:46;5.00;99.90
52030;DHT22;38043;53.224;6.580;2023-04-03T07:31:14;4.80;99.90
52030;DHT22;38043;53.224;6.580;2023-04-03T07:33:42;4.40;99.90
52030;DHT22;38043;53.224;6.580;2023-04-03T07:36:09;4.40;99.90
52030;DHT22;38043;53.224;6.580;2023-04-03T07:38:36;4.50;99.90
52030;DHT22;38043;53.224;6.580;2023-04-03T07:41:02;4.60;99.90
52030;DHT22;38043;53.224;6.580;2023-04-03T07:43:29;4.60;99.90
52030;DHT22;38043;53.224;6.580;2023-04-03T07:45:54;4.70;99.90
52030;DHT22;38043;53.224;6.580;2023-04-03T07:48:22;4.80;99.90
52030;DHT22;38043;53.224;6.580;2023-04-03T07:50:48;4.80;99.90
52030;DHT22;38043;53.224;6.580;2023-04-03T07:53:14;4.90;99.90
52030;DHT22;38043;53.224;6.580;2023-04-03T07:55:40;4.70;99.90
52030;DHT22;38043;53.224;6.580;2023-04-03T07:58:12;4.90;99.90
52030;DHT22;38043;53.224;6.580;2023-04-03T08:00:38;4.90;99.90
52030;DHT22;38043;53.224;6.580;2023-04-03T08:03:05;5.10;99.90
52030;DHT22;38043;53.224;6.580;2023-04-03T08:05:31;5.10;99.90
52030;DHT22;38043;53.224;6.580;2023-04-03T08:07:57;5.20;99.90
52030;DHT22;38043;53.224;6.580;2023-04-03T08:10:23;5.30;99.90
52030;DHT22;38043;53.224;6.580;2023-04-03T08:12:48;5.30;99.90
52030;DHT22;38043;53.224;6.580;2023-04-03T08:15:14;5.30;99.90
52030;DHT22;38043;53.224;6.580;2023-04-03T08:17:40;5.40;99.90
52030;DHT22;38043;53.224;6.580;2023-04-03T08:20:07;5.30;99.90
52030;DHT22;38043;53.224;6.580;2023-04-03T08:22:33;5.30;99.90
52030;DHT22;38043;53.224;6.580;2023-04-03T08:24:59;5.50;99.90
52030;DHT22;38043;53.224;6.580;2023-04-03T08:27:26;5.60;99.90
52030;DHT22;38043;53.224;6.580;2023-04-03T08:29:52;5.70;99.90
52030;DHT22;38043;53.224;6.580;2023-04-03T08:32:18;5.80;99.90
52030;DHT22;38043;53.224;6.580;2023-04-03T08:34:44;5.90;99.90
52030;DHT22;38043;53.224;6.580;2023-04-03T08:37:10;5.90;99.90
52030;DHT22;38043;53.224;6.580;2023-04-03T08:39:36;6.10;99.90
52030;DHT22;38043;53.224;6.580;2023-04-03T08:42:13;6.30;99.90
52030;DHT22;38043;53.224;6.580;2023-04-03T08:44:55;6.50;99.90
52030;DHT22;38043;53.224;6.580;2023-04-03T08:47:34;6.60;99.90
52030;DHT22;38043;53.224;6.580;2023-04-03T08:50:06;6.80;99.90
52030;DHT22;38043;53.224;6.580;2023-04-03T08:52:44;6.90;99.90
52030;DHT22;38043;53.224;6.580;2023-04-03T08:55:25;7.10;99.90
52030;DHT22;38043;53.224;6.580;2023-04-03T08:58:01;7.40;99.90
52030;DHT22;38043;53.224;6.580;2023-04-03T09:03:15;7.40;99.90
52030;DHT22;38043;53.224;6.580;2023-04-03T09:06:25;7.70;99.90
52030;DHT22;38043;53.224;6.580;2023-04-03T09:08:51;7.80;99.90
52030;DHT22;38043;53.224;6.580;2023-04-03T09:11:25;8.10;99.90
52030;DHT22;38043;53.224;6.580;2023-04-03T09:14:00;8.20;99.50
52030;DHT22;38043;53.224;6.580;2023-04-03T09:16:55;8.20;98.80
52030;DHT22;38043;53.224;6.580;2023-04-03T09:19:35;7.90;95.20
52030;DHT22;38043;53.224;6.580;2023-04-03T09:22:26;8.00;93.90
52030;DHT22;38043;53.224;6.580;2023-04-03T09:25:02;8.00;95.70
52030;DHT22;38043;53.224;6.580;2023-04-03T09:27:31;8.20;96.50
52030;DHT22;38043;53.224;6.580;2023-04-03T09:29:57;8.50;97.50
52030;DHT22;38043;53.224;6.580;2023-04-03T09:32:29;8.50;96.80
52030;DHT22;38043;53.224;6.580;2023-04-03T09:35:04;8.40;93.50
52030;DHT22;38043;53.224;6.580;2023-04-03T09:40:05;8.30;92.60
52030;DHT22;38043;53.224;6.580;2023-04-03T09:42:31;8.50;95.10
52030;DHT22;38043;53.224;6.580;2023-04-03T09:45:03;8.60;93.90
52030;DHT22;38043;53.224;6.580;2023-04-03T09:47:32;8.70;94.70
52030;DHT22;38043;53.224;6.580;2023-04-03T09:52:45;8.90;93.70
52030;DHT22;38043;53.224;6.580;2023-04-03T09:55:16;9.10;92.70
52030;DHT22;38043;53.224;6.580;2023-04-03T09:57:43;9.20;91.80
52030;DHT22;38043;53.224;6.580;2023-04-03T10:00:36;9.20;90.40
52030;DHT22;38043;53.224;6.580;2023-04-03T10:03:03;9.10;90.50
52030;DHT22;38043;53.224;6.580;2023-04-03T10:05:36;9.20;91.20
52030;DHT22;38043;53.224;6.580;2023-04-03T10:10:44;9.30;91.60
52030;DHT22;38043;53.224;6.580;2023-04-03T10:13:13;9.40;88.30
52030;DHT22;38043;53.224;6.580;2023-04-03T10:15:42;9.50;90.40
52030;DHT22;38043;53.224;6.580;2023-04-03T10:18:41;9.60;87.90
52030;DHT22;38043;53.224;6.580;2023-04-03T10:21:42;9.90;86.40
52030;DHT22;38043;53.224;6.580;2023-04-03T10:27:10;10.40;91.60
52030;DHT22;38043;53.224;6.580;2023-04-03T10:29:45;10.40;84.50
52030;DHT22;38043;53.224;6.580;2023-04-03T10:34:43;11.20;86.30
52030;DHT22;38043;53.224;6.580;2023-04-03T10:42:50;11.40;74.20
52030;DHT22;38043;53.224;6.580;2023-04-03T10:45:42;11.60;79.10
52030;DHT22;38043;53.224;6.580;2023-04-03T10:48:39;11.90;79.30
52030;DHT22;38043;53.224;6.580;2023-04-03T10:51:36;12.00;75.80
52030;DHT22;38043;53.224;6.580;2023-04-03T10:54:32;12.00;73.00
52030;DHT22;38043;53.224;6.580;2023-04-03T10:57:04;12.10;73.60
52030;DHT22;38043;53.224;6.580;2023-04-03T11:02:24;12.80;78.10
52030;DHT22;38043;53.224;6.580;2023-04-03T11:04:59;13.10;71.40
52030;DHT22;38043;53.224;6.580;2023-04-03T11:07:29;13.00;69.00
52030;DHT22;38043;53.224;6.580;2023-04-03T11:10:06;13.00;71.00
52030;DHT22;38043;53.224;6.580;2023-04-03T11:15:46;13.40;69.70
52030;DHT22;38043;53.224;6.580;2023-04-03T11:18:23;13.30;68.70
52030;DHT22;38043;53.224;6.580;2023-04-03T11:21:17;13.30;64.90
52030;DHT22;38043;53.224;6.580;2023-04-03T11:23:46;13.40;65.50
52030;DHT22;38043;53.224;6.580;2023-04-03T11:26:14;13.40;63.40
52030;DHT22;38043;53.224;6.580;2023-04-03T11:28:41;13.20;63.50
52030;DHT22;38043;53.224;6.580;2023-04-03T11:36:40;13.20;62.30
52030;DHT22;38043;53.224;6.580;2023-04-03T11:44:39;13.70;66.30
52030;DHT22;38043;53.224;6.580;2023-04-03T11:47:06;13.90;66.00
52030;DHT22;38043;53.224;6.580;2023-04-03T11:50:01;14.10;65.30
52030;DHT22;38043;53.224;6.580;2023-04-03T12:21:16;14.40;63.00
52030;DHT22;38043;53.224;6.580;2023-04-03T12:37:39;15.50;60.60
52030;DHT22;38043;53.224;6.580;2023-04-03T12:40:37;15.20;57.90
52030;DHT22;38043;53.224;6.580;2023-04-03T12:46:14;14.80;56.60
52030;DHT22;38043;53.224;6.580;2023-04-03T12:51:15;15.30;55.60
52030;DHT22;38043;53.224;6.580;2023-04-03T12:53:44;14.90;55.40
52030;DHT22;38043;53.224;6.580;2023-04-03T12:56:28;15.00;55.80
52030;DHT22;38043;53.224;6.580;2023-04-03T12:58:56;15.30;56.00
52030;DHT22;38043;53.224;6.580;2023-04-03T13:01:39;15.20;55.40
52030;DHT22;38043;53.224;6.580;2023-04-03T13:04:05;15.40;55.00
52030;DHT22;38043;53.224;6.580;2023-04-03T13:06:38;16.00;54.90
52030;DHT22;38043;53.224;6.580;2023-04-03T13:09:05;15.40;53.70
52030;DHT22;38043;53.224;6.580;2023-04-03T13:11:35;14.60;52.90
52030;DHT22;38043;53.224;6.580;2023-04-03T13:14:03;13.90;54.00
52030;DHT22;38043;53.224;6.580;2023-04-03T13:16:31;12.90;55.10
52030;DHT22;38043;53.224;6.580;2023-04-03T13:18:57;12.20;56.40
52030;DHT22;38043;53.224;6.580;2023-04-03T13:21:29;11.60;57.40
52030;DHT22;38043;53.224;6.580;2023-04-03T13:23:58;11.20;58.60
52030;DHT22;38043;53.224;6.580;2023-04-03T13:26:31;10.90;59.80
52030;DHT22;38043;53.224;6.580;2023-04-03T13:29:05;10.70;59.90
52030;DHT22;38043;53.224;6.580;2023-04-03T13:31:36;11.00;59.50
52030;DHT22;38043;53.224;6.580;2023-04-03T13:37:01;12.10;58.40
52030;DHT22;38043;53.224;6.580;2023-04-03T13:39:34;12.50;58.00
52030;DHT22;38043;53.224;6.580;2023-04-03T13:42:22;12.80;57.00
52030;DHT22;38043;53.224;6.580;2023-04-03T13:44:48;12.50;58.00
52030;DHT22;38043;53.224;6.580;2023-04-03T13:47:17;12.00;59.40
52030;DHT22;38043;53.224;6.580;2023-04-03T13:49:58;11.00;59.30
52030;DHT22;38043;53.224;6.580;2023-04-03T13:52:34;10.30;61.10
52030;DHT22;38043;53.224;6.580;2023-04-03T13:57:58;9.70;65.30
52030;DHT22;38043;53.224;6.580;2023-04-03T14:03:26;9.50;66.80
52030;DHT22;38043;53.224;6.580;2023-04-03T14:05:52;9.50;67.80
52030;DHT22;38043;53.224;6.580;2023-04-03T14:08:18;9.30;68.50
52030;DHT22;38043;53.224;6.580;2023-04-03T14:10:44;9.30;70.00
52030;DHT22;38043;53.224;6.580;2023-04-03T14:13:14;9.20;68.60
52030;DHT22;38043;53.224;6.580;2023-04-03T14:15:41;9.00;69.00
52030;DHT22;38043;53.224;6.580;2023-04-03T14:18:11;8.90;69.10
52030;DHT22;38043;53.224;6.580;2023-04-03T14:20:38;8.70;70.20
52030;DHT22;38043;53.224;6.580;2023-04-03T14:23:03;8.60;71.50
52030;DHT22;38043;53.224;6.580;2023-04-03T14:25:29;8.60;72.60
52030;DHT22;38043;53.224;6.580;2023-04-03T14:27:55;8.70;72.80
52030;DHT22;38043;53.224;6.580;2023-04-03T14:30:25;8.60;73.00
52030;DHT22;38043;53.224;6.580;2023-04-03T14:32:51;8.50;73.80
52030;DHT22;38043;53.224;6.580;2023-04-03T14:35:18;8.40;73.80
52030;DHT22;38043;53.224;6.580;2023-04-03T14:37:45;8.50;73.40
52030;DHT22;38043;53.224;6.580;2023-04-03T14:40:24;8.40;73.30
52030;DHT22;38043;53.224;6.580;2023-04-03T14:42:51;8.50;73.80
52030;DHT22;38043;53.224;6.580;2023-04-03T14:45:20;8.30;74.80
52030;DHT22;38043;53.224;6.580;2023-04-03T14:47:52;8.30;75.10
52030;DHT22;38043;53.224;6.580;2023-04-03T14:50:21;8.30;75.50
52030;DHT22;38043;53.224;6.580;2023-04-03T14:52:48;8.30;76.40
52030;DHT22;38043;53.224;6.580;2023-04-03T14:55:18;8.50;78.10
52030;DHT22;38043;53.224;6.580;2023-04-03T14:57:44;8.60;77.80
52030;DHT22;38043;53.224;6.580;2023-04-03T15:00:15;8.60;77.50
52030;DHT22;38043;53.224;6.580;2023-04-03T15:02:41;8.70;77.80
52030;DHT22;38043;53.224;6.580;2023-04-03T15:05:11;8.50;78.00
52030;DHT22;38043;53.224;6.580;2023-04-03T15:07:42;8.50;76.40
52030;DHT22;38043;53.224;6.580;2023-04-03T15:12:39;8.40;75.50
52030;DHT22;38043;53.224;6.580;2023-04-03T15:15:06;8.30;75.00
52030;DHT22;38043;53.224;6.580;2023-04-03T15:17:32;8.20;74.80
52030;DHT22;38043;53.224;6.580;2023-04-03T15:19:58;8.20;74.10
52030;DHT22;38043;53.224;6.580;2023-04-03T15:22:24;8.20;73.90
52030;DHT22;38043;53.224;6.580;2023-04-03T15:24:50;8.20;73.90
52030;DHT22;38043;53.224;6.580;2023-04-03T15:27:16;8.20;73.90
52030;DHT22;38043;53.224;6.580;2023-04-03T15:29:43;8.20;73.50
52030;DHT22;38043;53.224;6.580;2023-04-03T15:32:10;8.40;74.50
52030;DHT22;38043;53.224;6.580;2023-04-03T15:34:36;8.30;74.70
52030;DHT22;38043;53.224;6.580;2023-04-03T15:37:02;8.30;75.00
52030;DHT22;38043;53.224;6.580;2023-04-03T15:39:28;8.20;75.10
52030;DHT22;38043;53.224;6.580;2023-04-03T15:41:54;8.30;76.10
52030;DHT22;38043;53.224;6.580;2023-04-03T15:44:20;8.20;77.20
52030;DHT22;38043;53.224;6.580;2023-04-03T15:46:47;8.10;75.60
52030;DHT22;38043;53.224;6.580;2023-04-03T15:49:18;8.20;74.00
52030;DHT22;38043;53.224;6.580;2023-04-03T15:51:44;8.10;74.30
52030;DHT22;38043;53.224;6.580;2023-04-03T15:54:10;8.10;76.30
52030;DHT22;38043;53.224;6.580;2023-04-03T15:56:36;8.10;77.30
52030;DHT22;38043;53.224;6.580;2023-04-03T15:59:01;8.10;78.50
52030;DHT22;38043;53.224;6.580;2023-04-03T16:01:27;8.00;79.50
52030;DHT22;38043;53.224;6.580;2023-04-03T16:03:53;7.90;79.80
52030;DHT22;38043;53.224;6.580;2023-04-03T16:06:19;7.90;77.30
52030;DHT22;38043;53.224;6.580;2023-04-03T16:08:46;7.90;79.30
52030;DHT22;38043;53.224;6.580;2023-04-03T16:11:13;7.90;78.10
52030;DHT22;38043;53.224;6.580;2023-04-03T16:13:38;7.90;78.10
52030;DHT22;38043;53.224;6.580;2023-04-03T16:16:04;7.80;77.30
52030;DHT22;38043;53.224;6.580;2023-04-03T16:18:31;7.90;76.20
52030;DHT22;38043;53.224;6.580;2023-04-03T16:20:57;7.90;76.50
52030;DHT22;38043;53.224;6.580;2023-04-03T16:23:23;7.90;77.30
52030;DHT22;38043;53.224;6.580;2023-04-03T16:25:49;7.70;76.80
52030;DHT22;38043;53.224;6.580;2023-04-03T16:28:16;7.70;76.10
52030;DHT22;38043;53.224;6.580;2023-04-03T16:30:44;7.70;75.90
52030;DHT22;38043;53.224;6.580;2023-04-03T16:33:11;7.60;76.30
52030;DHT22;38043;53.224;6.580;2023-04-03T16:35:37;7.60;77.80
52030;DHT22;38043;53.224;6.580;2023-04-03T16:38:03;7.50;81.60
52030;DHT22;38043;53.224;6.580;2023-04-03T16:40:29;7.30;83.10
52030;DHT22;38043;53.224;6.580;2023-04-03T16:42:55;7.30;85.10
52030;DHT22;38043;53.224;6.580;2023-04-03T16:45:20;7.20;86.20
52030;DHT22;38043;53.224;6.580;2023-04-03T16:47:46;7.10;87.30
52030;DHT22;38043;53.224;6.580;2023-04-03T16:50:12;7.10;88.00
52030;DHT22;38043;53.224;6.580;2023-04-03T16:52:38;7.00;89.10
52030;DHT22;38043;53.224;6.580;2023-04-03T16:55:04;7.00;89.80
52030;DHT22;38043;53.224;6.580;2023-04-03T16:57:30;6.90;90.50
52030;DHT22;38043;53.224;6.580;2023-04-03T16:59:55;6.90;90.90
52030;DHT22;38043;53.224;6.580;2023-04-03T17:02:23;6.80;91.10
52030;DHT22;38043;53.224;6.580;2023-04-03T17:04:53;6.90;91.10
52030;DHT22;38043;53.224;6.580;2023-04-03T17:07:20;6.70;90.80
52030;DHT22;38043;53.224;6.580;2023-04-03T17:09:46;6.70;91.20
52030;DHT22;38043;53.224;6.580;2023-04-03T17:12:12;6.70;91.60
52030;DHT22;38043;53.224;6.580;2023-04-03T17:14:38;6.60;92.20
52030;DHT22;38043;53.224;6.580;2023-04-03T17:17:04;6.60;92.40
52030;DHT22;38043;53.224;6.580;2023-04-03T17:19:30;6.50;92.80
52030;DHT22;38043;53.224;6.580;2023-04-03T17:21:56;6.50;92.80
52030;DHT22;38043;53.224;6.580;2023-04-03T17:24:22;6.40;93.30
52030;DHT22;38043;53.224;6.580;2023-04-03T17:26:48;6.40;94.30
52030;DHT22;38043;53.224;6.580;2023-04-03T17:29:14;6.30;94.70
52030;DHT22;38043;53.224;6.580;2023-04-03T17:31:40;6.30;94.90
52030;DHT22;38043;53.224;6.580;2023-04-03T17:34:06;6.30;95.50